sensor_id;sensor_type;location;lat;lon;timestamp;P1;durP1;ratioP1;P2;durP2;ratioP2
53513;SDS011;39768;54.148;12.174;2023-01-29T00:01:15;2.75;;;2.55;;
53513;SDS011;39768;54.148;12.174;2023-01-29T00:05:16;9.05;;;2.72;;
53513;SDS011;39768;54.148;12.174;2023-01-29T00:09:28;3.38;;;2.65;;
53513;SDS011;39768;54.148;12.174;2023-01-29T00:13:29;3.80;;;2.97;;
53513;SDS011;39768;54.148;12.174;2023-01-29T00:17:31;4.50;;;2.92;;
53513;SDS011;39768;54.148;12.174;2023-01-29T00:21:32;4.13;;;3.20;;
53513;SDS011;39768;54.148;12.174;2023-01-29T00:25:34;6.05;;;2.05;;
53513;SDS011;39768;54.148;12.174;2023-01-29T00:29:36;4.07;;;2.40;;
53513;SDS011;39768;54.148;12.174;2023-01-29T00:33:37;6.32;;;2.10;;
53513;SDS011;39768;54.148;12.174;2023-01-29T00:37:41;7.90;;;4.97;;
53513;SDS011;39768;54.148;12.174;2023-01-29T00:41:42;8.77;;;2.53;;
53513;SDS011;39768;54.148;12.174;2023-01-29T00:46:02;6.07;;;3.75;;
53513;SDS011;39768;54.148;12.174;2023-01-29T00:50:10;6.72;;;3.65;;
53513;SDS011;39768;54.148;12.174;2023-01-29T00:54:12;9.32;;;4.30;;
53513;SDS011;39768;54.148;12.174;2023-01-29T00:58:13;6.82;;;3.90;;
53513;SDS011;39768;54.148;12.174;2023-01-29T01:02:15;6.32;;;3.45;;
53513;SDS011;39768;54.148;12.174;2023-01-29T01:06:37;9.10;;;3.95;;
53513;SDS011;39768;54.148;12.174;2023-01-29T01:10:40;9.65;;;4.00;;
53513;SDS011;39768;54.148;12.174;2023-01-29T01:14:42;5.10;;;3.35;;
53513;SDS011;39768;54.148;12.174;2023-01-29T01:18:47;3.95;;;2.85;;
53513;SDS011;39768;54.148;12.174;2023-01-29T01:22:48;5.25;;;3.38;;
53513;SDS011;39768;54.148;12.174;2023-01-29T01:26:50;7.95;;;3.83;;
53513;SDS011;39768;54.148;12.174;2023-01-29T01:30:52;3.83;;;2.75;;
53513;SDS011;39768;54.148;12.174;2023-01-29T01:34:53;5.40;;;4.53;;
53513;SDS011;39768;54.148;12.174;2023-01-29T01:38:55;5.88;;;2.83;;
53513;SDS011;39768;54.148;12.174;2023-01-29T01:42:57;6.43;;;3.28;;
53513;SDS011;39768;54.148;12.174;2023-01-29T01:47:00;9.15;;;3.95;;
53513;SDS011;39768;54.148;12.174;2023-01-29T01:51:02;11.40;;;3.50;;
53513;SDS011;39768;54.148;12.174;2023-01-29T01:55:06;5.65;;;2.17;;
53513;SDS011;39768;54.148;12.174;2023-01-29T01:59:13;1.88;;;1.40;;
53513;SDS011;39768;54.148;12.174;2023-01-29T02:03:18;9.00;;;2.95;;
53513;SDS011;39768;54.148;12.174;2023-01-29T02:07:41;5.28;;;2.78;;
53513;SDS011;39768;54.148;12.174;2023-01-29T02:12:06;2.17;;;1.98;;
53513;SDS011;39768;54.148;12.174;2023-01-29T02:16:12;2.10;;;1.67;;
53513;SDS011;39768;54.148;12.174;2023-01-29T02:20:17;8.20;;;4.25;;
53513;SDS011;39768;54.148;12.174;2023-01-29T02:29:07;2.28;;;2.08;;
53513;SDS011;39768;54.148;12.174;2023-01-29T02:33:42;4.47;;;2.92;;
53513;SDS011;39768;54.148;12.174;2023-01-29T02:42:28;6.35;;;2.15;;
53513;SDS011;39768;54.148;12.174;2023-01-29T02:46:37;3.67;;;2.28;;
53513;SDS011;39768;54.148;12.174;2023-01-29T02:50:48;3.22;;;2.50;;
53513;SDS011;39768;54.148;12.174;2023-01-29T02:54:59;6.85;;;2.58;;
53513;SDS011;39768;54.148;12.174;2023-01-29T02:59:20;7.10;;;2.83;;
53513;SDS011;39768;54.148;12.174;2023-01-29T03:03:27;6.40;;;1.90;;
53513;SDS011;39768;54.148;12.174;2023-01-29T03:07:34;4.63;;;2.40;;
53513;SDS011;39768;54.148;12.174;2023-01-29T03:11:47;11.95;;;3.78;;
53513;SDS011;39768;54.148;12.174;2023-01-29T03:15:59;7.00;;;2.15;;
53513;SDS011;39768;54.148;12.174;2023-01-29T03:20:18;1.85;;;1.52;;
53513;SDS011;39768;54.148;12.174;2023-01-29T03:29:10;3.38;;;2.63;;
53513;SDS011;39768;54.148;12.174;2023-01-29T03:33:34;6.20;;;2.15;;
53513;SDS011;39768;54.148;12.174;2023-01-29T03:37:43;2.25;;;1.90;;
53513;SDS011;39768;54.148;12.174;2023-01-29T03:41:52;4.78;;;2.35;;
53513;SDS011;39768;54.148;12.174;2023-01-29T03:46:05;2.60;;;1.55;;
53513;SDS011;39768;54.148;12.174;2023-01-29T03:54:57;3.25;;;1.20;;
53513;SDS011;39768;54.148;12.174;2023-01-29T03:59:07;3.35;;;1.85;;
53513;SDS011;39768;54.148;12.174;2023-01-29T04:08:28;2.45;;;1.20;;
53513;SDS011;39768;54.148;12.174;2023-01-29T04:12:42;4.72;;;1.73;;
53513;SDS011;39768;54.148;12.174;2023-01-29T04:21:13;5.97;;;2.20;;
53513;SDS011;39768;54.148;12.174;2023-01-29T04:25:19;1.98;;;1.25;;
53513;SDS011;39768;54.148;12.174;2023-01-29T04:29:34;1.38;;;1.10;;
53513;SDS011;39768;54.148;12.174;2023-01-29T04:33:53;1.40;;;1.30;;
53513;SDS011;39768;54.148;12.174;2023-01-29T04:38:22;2.58;;;1.38;;
53513;SDS011;39768;54.148;12.174;2023-01-29T04:42:41;1.13;;;1.13;;
53513;SDS011;39768;54.148;12.174;2023-01-29T04:47:04;3.55;;;1.73;;
53513;SDS011;39768;54.148;12.174;2023-01-29T04:56:08;1.25;;;1.08;;
53513;SDS011;39768;54.148;12.174;2023-01-29T05:00:23;1.33;;;1.30;;
53513;SDS011;39768;54.148;12.174;2023-01-29T05:04:40;2.35;;;1.83;;
53513;SDS011;39768;54.148;12.174;2023-01-29T05:08:44;2.85;;;2.25;;
53513;SDS011;39768;54.148;12.174;2023-01-29T05:12:59;3.38;;;1.70;;
53513;SDS011;39768;54.148;12.174;2023-01-29T05:17:04;4.90;;;1.95;;
53513;SDS011;39768;54.148;12.174;2023-01-29T05:21:13;2.08;;;1.73;;
53513;SDS011;39768;54.148;12.174;2023-01-29T05:25:22;2.45;;;1.65;;
53513;SDS011;39768;54.148;12.174;2023-01-29T05:29:25;1.45;;;1.05;;
53513;SDS011;39768;54.148;12.174;2023-01-29T05:33:27;1.02;;;0.95;;
53513;SDS011;39768;54.148;12.174;2023-01-29T05:37:30;2.05;;;1.80;;
53513;SDS011;39768;54.148;12.174;2023-01-29T05:41:32;2.75;;;1.67;;
53513;SDS011;39768;54.148;12.174;2023-01-29T05:45:33;2.13;;;1.92;;
53513;SDS011;39768;54.148;12.174;2023-01-29T05:49:35;7.07;;;1.92;;
53513;SDS011;39768;54.148;12.174;2023-01-29T05:53:38;3.08;;;1.88;;
53513;SDS011;39768;54.148;12.174;2023-01-29T05:57:40;5.10;;;2.20;;
53513;SDS011;39768;54.148;12.174;2023-01-29T06:01:41;3.17;;;1.63;;
53513;SDS011;39768;54.148;12.174;2023-01-29T06:05:43;1.73;;;1.63;;
53513;SDS011;39768;54.148;12.174;2023-01-29T06:09:44;2.80;;;2.20;;
53513;SDS011;39768;54.148;12.174;2023-01-29T06:13:46;2.63;;;1.42;;
53513;SDS011;39768;54.148;12.174;2023-01-29T06:17:48;4.68;;;1.83;;
53513;SDS011;39768;54.148;12.174;2023-01-29T06:21:49;0.85;;;0.85;;
53513;SDS011;39768;54.148;12.174;2023-01-29T06:25:51;2.20;;;1.45;;
53513;SDS011;39768;54.148;12.174;2023-01-29T06:29:52;2.33;;;1.48;;
53513;SDS011;39768;54.148;12.174;2023-01-29T06:33:54;1.88;;;1.70;;
53513;SDS011;39768;54.148;12.174;2023-01-29T06:37:55;2.90;;;2.13;;
53513;SDS011;39768;54.148;12.174;2023-01-29T06:41:57;1.25;;;1.15;;
53513;SDS011;39768;54.148;12.174;2023-01-29T06:45:58;2.25;;;1.90;;
53513;SDS011;39768;54.148;12.174;2023-01-29T06:50:00;1.45;;;1.30;;
53513;SDS011;39768;54.148;12.174;2023-01-29T06:54:02;1.60;;;1.48;;
53513;SDS011;39768;54.148;12.174;2023-01-29T06:58:07;2.65;;;1.52;;
53513;SDS011;39768;54.148;12.174;2023-01-29T07:02:10;1.98;;;1.52;;
53513;SDS011;39768;54.148;12.174;2023-01-29T07:06:11;4.15;;;1.70;;
53513;SDS011;39768;54.148;12.174;2023-01-29T07:10:13;1.85;;;1.38;;
53513;SDS011;39768;54.148;12.174;2023-01-29T07:14:15;1.20;;;1.17;;
53513;SDS011;39768;54.148;12.174;2023-01-29T07:18:16;1.55;;;1.45;;
53513;SDS011;39768;54.148;12.174;2023-01-29T07:22:18;4.28;;;1.60;;
53513;SDS011;39768;54.148;12.174;2023-01-29T07:26:19;0.63;;;0.63;;
53513;SDS011;39768;54.148;12.174;2023-01-29T07:30:21;3.33;;;2.35;;
53513;SDS011;39768;54.148;12.174;2023-01-29T07:34:22;1.50;;;1.25;;
53513;SDS011;39768;54.148;12.174;2023-01-29T07:38:24;3.15;;;2.00;;
53513;SDS011;39768;54.148;12.174;2023-01-29T07:42:26;3.25;;;1.73;;
53513;SDS011;39768;54.148;12.174;2023-01-29T07:46:27;1.30;;;1.23;;
53513;SDS011;39768;54.148;12.174;2023-01-29T07:50:29;1.00;;;1.00;;
53513;SDS011;39768;54.148;12.174;2023-01-29T07:54:31;0.82;;;0.82;;
53513;SDS011;39768;54.148;12.174;2023-01-29T07:58:32;4.28;;;2.28;;
53513;SDS011;39768;54.148;12.174;2023-01-29T08:02:37;1.73;;;1.63;;
53513;SDS011;39768;54.148;12.174;2023-01-29T08:06:38;1.17;;;0.95;;
53513;SDS011;39768;54.148;12.174;2023-01-29T08:10:40;6.18;;;1.63;;
53513;SDS011;39768;54.148;12.174;2023-01-29T08:14:42;2.08;;;1.98;;
53513;SDS011;39768;54.148;12.174;2023-01-29T08:18:43;2.60;;;2.10;;
53513;SDS011;39768;54.148;12.174;2023-01-29T08:22:48;4.68;;;2.60;;
53513;SDS011;39768;54.148;12.174;2023-01-29T08:26:49;4.57;;;1.88;;
53513;SDS011;39768;54.148;12.174;2023-01-29T08:30:51;3.55;;;2.20;;
53513;SDS011;39768;54.148;12.174;2023-01-29T08:34:53;1.17;;;1.02;;
53513;SDS011;39768;54.148;12.174;2023-01-29T08:38:54;1.38;;;1.23;;
53513;SDS011;39768;54.148;12.174;2023-01-29T08:42:59;1.52;;;1.02;;
53513;SDS011;39768;54.148;12.174;2023-01-29T08:47:07;4.03;;;1.85;;
53513;SDS011;39768;54.148;12.174;2023-01-29T08:51:08;3.90;;;2.17;;
53513;SDS011;39768;54.148;12.174;2023-01-29T08:55:10;2.17;;;1.90;;
53513;SDS011;39768;54.148;12.174;2023-01-29T08:59:12;2.53;;;1.80;;
53513;SDS011;39768;54.148;12.174;2023-01-29T09:03:13;3.65;;;1.65;;
53513;SDS011;39768;54.148;12.174;2023-01-29T09:07:15;1.33;;;1.33;;
53513;SDS011;39768;54.148;12.174;2023-01-29T09:11:16;1.40;;;1.33;;
53513;SDS011;39768;54.148;12.174;2023-01-29T09:15:18;2.42;;;1.85;;
53513;SDS011;39768;54.148;12.174;2023-01-29T09:19:20;1.27;;;1.17;;
53513;SDS011;39768;54.148;12.174;2023-01-29T09:23:21;1.73;;;1.63;;
53513;SDS011;39768;54.148;12.174;2023-01-29T09:27:23;1.33;;;1.13;;
53513;SDS011;39768;54.148;12.174;2023-01-29T09:31:24;4.10;;;1.98;;
53513;SDS011;39768;54.148;12.174;2023-01-29T09:35:26;1.45;;;1.10;;
53513;SDS011;39768;54.148;12.174;2023-01-29T09:39:27;1.52;;;1.25;;
53513;SDS011;39768;54.148;12.174;2023-01-29T09:43:33;1.13;;;1.13;;
53513;SDS011;39768;54.148;12.174;2023-01-29T09:47:43;2.85;;;2.03;;
53513;SDS011;39768;54.148;12.174;2023-01-29T09:51:46;1.45;;;0.75;;
53513;SDS011;39768;54.148;12.174;2023-01-29T09:55:57;2.50;;;2.30;;
53513;SDS011;39768;54.148;12.174;2023-01-29T10:00:02;1.95;;;1.80;;
53513;SDS011;39768;54.148;12.174;2023-01-29T10:13:02;2.47;;;2.08;;
53513;SDS011;39768;54.148;12.174;2023-01-29T10:26:20;8.80;;;2.17;;
53513;SDS011;39768;54.148;12.174;2023-01-29T10:30:37;1.27;;;1.17;;
53513;SDS011;39768;54.148;12.174;2023-01-29T10:34:46;4.43;;;1.65;;
53513;SDS011;39768;54.148;12.174;2023-01-29T10:39:01;2.22;;;1.95;;
53513;SDS011;39768;54.148;12.174;2023-01-29T10:43:16;1.30;;;1.08;;
53513;SDS011;39768;54.148;12.174;2023-01-29T10:56:20;1.13;;;0.88;;
53513;SDS011;39768;54.148;12.174;2023-01-29T11:00:37;0.97;;;0.87;;
53513;SDS011;39768;54.148;12.174;2023-01-29T11:04:40;1.42;;;1.20;;
53513;SDS011;39768;54.148;12.174;2023-01-29T11:08:46;1.90;;;0.80;;
53513;SDS011;39768;54.148;12.174;2023-01-29T11:12:54;1.15;;;0.70;;
53513;SDS011;39768;54.148;12.174;2023-01-29T11:16:57;2.58;;;1.73;;
53513;SDS011;39768;54.148;12.174;2023-01-29T11:21:00;4.45;;;1.83;;
53513;SDS011;39768;54.148;12.174;2023-01-29T11:25:06;4.70;;;1.55;;
53513;SDS011;39768;54.148;12.174;2023-01-29T11:29:36;1.00;;;1.00;;
53513;SDS011;39768;54.148;12.174;2023-01-29T11:33:39;1.50;;;1.40;;
53513;SDS011;39768;54.148;12.174;2023-01-29T11:37:42;0.88;;;0.88;;
53513;SDS011;39768;54.148;12.174;2023-01-29T11:41:49;2.13;;;1.50;;
53513;SDS011;39768;54.148;12.174;2023-01-29T11:50:16;1.35;;;1.25;;
53513;SDS011;39768;54.148;12.174;2023-01-29T11:59:02;1.65;;;1.55;;
53513;SDS011;39768;54.148;12.174;2023-01-29T12:03:12;1.17;;;1.17;;
53513;SDS011;39768;54.148;12.174;2023-01-29T12:07:25;1.50;;;1.25;;
53513;SDS011;39768;54.148;12.174;2023-01-29T12:11:30;2.15;;;1.95;;
53513;SDS011;39768;54.148;12.174;2023-01-29T12:15:33;4.10;;;2.28;;
53513;SDS011;39768;54.148;12.174;2023-01-29T12:19:38;1.67;;;1.58;;
53513;SDS011;39768;54.148;12.174;2023-01-29T12:23:49;3.28;;;2.65;;
53513;SDS011;39768;54.148;12.174;2023-01-29T12:27:59;3.40;;;1.33;;
53513;SDS011;39768;54.148;12.174;2023-01-29T12:40:49;4.03;;;1.55;;
53513;SDS011;39768;54.148;12.174;2023-01-29T12:44:56;2.05;;;1.73;;
53513;SDS011;39768;54.148;12.174;2023-01-29T12:49:05;2.05;;;1.83;;
53513;SDS011;39768;54.148;12.174;2023-01-29T12:53:27;1.15;;;1.02;;
53513;SDS011;39768;54.148;12.174;2023-01-29T13:01:49;3.42;;;2.83;;
53513;SDS011;39768;54.148;12.174;2023-01-29T13:06:11;6.80;;;2.40;;
53513;SDS011;39768;54.148;12.174;2023-01-29T13:10:17;1.73;;;1.63;;
53513;SDS011;39768;54.148;12.174;2023-01-29T13:14:24;3.55;;;1.42;;
53513;SDS011;39768;54.148;12.174;2023-01-29T13:18:43;3.47;;;1.83;;
53513;SDS011;39768;54.148;12.174;2023-01-29T13:22:47;2.30;;;2.10;;
53513;SDS011;39768;54.148;12.174;2023-01-29T13:26:50;2.10;;;1.90;;
53513;SDS011;39768;54.148;12.174;2023-01-29T13:31:08;4.43;;;3.42;;
53513;SDS011;39768;54.148;12.174;2023-01-29T13:35:11;3.58;;;1.63;;
53513;SDS011;39768;54.148;12.174;2023-01-29T13:39:17;2.17;;;2.00;;
53513;SDS011;39768;54.148;12.174;2023-01-29T13:43:22;4.78;;;2.97;;
53513;SDS011;39768;54.148;12.174;2023-01-29T13:47:25;2.10;;;1.75;;
53513;SDS011;39768;54.148;12.174;2023-01-29T13:51:32;6.22;;;2.08;;
53513;SDS011;39768;54.148;12.174;2023-01-29T13:55:37;2.15;;;1.38;;
53513;SDS011;39768;54.148;12.174;2023-01-29T14:03:53;2.78;;;1.02;;
53513;SDS011;39768;54.148;12.174;2023-01-29T14:20:49;2.45;;;2.22;;
53513;SDS011;39768;54.148;12.174;2023-01-29T14:24:49;0.98;;;0.95;;
53513;SDS011;39768;54.148;12.174;2023-01-29T14:33:21;6.57;;;3.72;;
53513;SDS011;39768;54.148;12.174;2023-01-29T14:37:33;3.75;;;2.42;;
53513;SDS011;39768;54.148;12.174;2023-01-29T14:41:39;6.82;;;2.90;;
53513;SDS011;39768;54.148;12.174;2023-01-29T14:45:43;5.88;;;2.92;;
53513;SDS011;39768;54.148;12.174;2023-01-29T14:49:51;3.17;;;2.33;;
53513;SDS011;39768;54.148;12.174;2023-01-29T14:58:02;3.20;;;2.72;;
53513;SDS011;39768;54.148;12.174;2023-01-29T15:02:39;3.03;;;2.13;;
53513;SDS011;39768;54.148;12.174;2023-01-29T15:06:45;3.53;;;2.70;;
53513;SDS011;39768;54.148;12.174;2023-01-29T15:19:35;2.75;;;2.55;;
53513;SDS011;39768;54.148;12.174;2023-01-29T15:23:38;4.10;;;2.90;;
53513;SDS011;39768;54.148;12.174;2023-01-29T15:27:44;5.72;;;3.22;;
53513;SDS011;39768;54.148;12.174;2023-01-29T15:31:46;2.60;;;1.77;;
53513;SDS011;39768;54.148;12.174;2023-01-29T15:35:48;4.88;;;3.03;;
53513;SDS011;39768;54.148;12.174;2023-01-29T15:40:12;5.20;;;3.47;;
53513;SDS011;39768;54.148;12.174;2023-01-29T15:44:21;2.90;;;2.67;;
53513;SDS011;39768;54.148;12.174;2023-01-29T15:48:26;7.05;;;3.67;;
53513;SDS011;39768;54.148;12.174;2023-01-29T15:52:33;11.25;;;4.82;;
53513;SDS011;39768;54.148;12.174;2023-01-29T15:56:53;18.17;;;5.55;;
53513;SDS011;39768;54.148;12.174;2023-01-29T16:00:56;5.57;;;5.03;;
53513;SDS011;39768;54.148;12.174;2023-01-29T16:05:00;9.85;;;4.38;;
53513;SDS011;39768;54.148;12.174;2023-01-29T16:09:02;10.10;;;4.72;;
53513;SDS011;39768;54.148;12.174;2023-01-29T16:13:07;7.55;;;6.40;;
53513;SDS011;39768;54.148;12.174;2023-01-29T16:17:23;9.98;;;5.35;;
53513;SDS011;39768;54.148;12.174;2023-01-29T16:21:29;11.30;;;5.47;;
53513;SDS011;39768;54.148;12.174;2023-01-29T16:25:35;14.20;;;3.83;;
53513;SDS011;39768;54.148;12.174;2023-01-29T16:29:38;7.57;;;3.95;;
53513;SDS011;39768;54.148;12.174;2023-01-29T16:33:40;4.18;;;2.65;;
53513;SDS011;39768;54.148;12.174;2023-01-29T16:37:46;6.43;;;2.85;;
53513;SDS011;39768;54.148;12.174;2023-01-29T16:50:33;5.80;;;3.13;;
53513;SDS011;39768;54.148;12.174;2023-01-29T16:55:00;5.00;;;3.35;;
53513;SDS011;39768;54.148;12.174;2023-01-29T16:59:21;5.28;;;2.95;;
53513;SDS011;39768;54.148;12.174;2023-01-29T17:03:36;7.18;;;3.97;;
53513;SDS011;39768;54.148;12.174;2023-01-29T17:07:39;8.43;;;4.43;;
53513;SDS011;39768;54.148;12.174;2023-01-29T17:11:46;6.90;;;3.13;;
53513;SDS011;39768;54.148;12.174;2023-01-29T17:15:50;9.32;;;5.63;;
53513;SDS011;39768;54.148;12.174;2023-01-29T17:19:52;8.40;;;3.15;;
53513;SDS011;39768;54.148;12.174;2023-01-29T17:23:53;4.00;;;2.92;;
53513;SDS011;39768;54.148;12.174;2023-01-29T17:27:55;6.25;;;3.25;;
53513;SDS011;39768;54.148;12.174;2023-01-29T17:31:56;7.93;;;3.15;;
53513;SDS011;39768;54.148;12.174;2023-01-29T17:36:00;2.28;;;1.83;;
53513;SDS011;39768;54.148;12.174;2023-01-29T17:40:02;1.83;;;1.75;;
53513;SDS011;39768;54.148;12.174;2023-01-29T17:44:05;4.68;;;3.10;;
53513;SDS011;39768;54.148;12.174;2023-01-29T17:48:13;8.98;;;3.45;;
53513;SDS011;39768;54.148;12.174;2023-01-29T17:52:22;5.38;;;3.03;;
53513;SDS011;39768;54.148;12.174;2023-01-29T17:56:24;5.72;;;3.72;;
53513;SDS011;39768;54.148;12.174;2023-01-29T18:00:28;7.63;;;3.97;;
53513;SDS011;39768;54.148;12.174;2023-01-29T18:04:29;8.48;;;3.95;;
53513;SDS011;39768;54.148;12.174;2023-01-29T18:08:32;5.15;;;4.20;;
53513;SDS011;39768;54.148;12.174;2023-01-29T18:12:35;7.40;;;4.47;;
53513;SDS011;39768;54.148;12.174;2023-01-29T18:16:37;11.10;;;5.22;;
53513;SDS011;39768;54.148;12.174;2023-01-29T18:20:41;7.80;;;3.92;;
53513;SDS011;39768;54.148;12.174;2023-01-29T18:24:42;3.97;;;3.40;;
53513;SDS011;39768;54.148;12.174;2023-01-29T18:28:44;7.82;;;4.47;;
53513;SDS011;39768;54.148;12.174;2023-01-29T18:32:45;6.65;;;4.03;;
53513;SDS011;39768;54.148;12.174;2023-01-29T18:36:47;4.70;;;2.03;;
53513;SDS011;39768;54.148;12.174;2023-01-29T18:40:49;2.60;;;2.42;;
53513;SDS011;39768;54.148;12.174;2023-01-29T18:44:50;10.73;;;4.88;;
53513;SDS011;39768;54.148;12.174;2023-01-29T18:48:52;4.25;;;3.05;;
53513;SDS011;39768;54.148;12.174;2023-01-29T18:52:54;6.03;;;3.75;;
53513;SDS011;39768;54.148;12.174;2023-01-29T18:56:55;5.10;;;3.75;;
53513;SDS011;39768;54.148;12.174;2023-01-29T19:01:17;4.63;;;3.15;;
53513;SDS011;39768;54.148;12.174;2023-01-29T19:05:18;4.95;;;2.58;;
53513;SDS011;39768;54.148;12.174;2023-01-29T19:09:22;6.40;;;3.78;;
53513;SDS011;39768;54.148;12.174;2023-01-29T19:13:25;3.65;;;2.72;;
53513;SDS011;39768;54.148;12.174;2023-01-29T19:17:27;2.80;;;2.40;;
53513;SDS011;39768;54.148;12.174;2023-01-29T19:21:28;7.78;;;3.75;;
53513;SDS011;39768;54.148;12.174;2023-01-29T19:25:30;7.38;;;3.55;;
53513;SDS011;39768;54.148;12.174;2023-01-29T19:29:32;6.07;;;4.28;;
53513;SDS011;39768;54.148;12.174;2023-01-29T19:33:34;6.88;;;4.53;;
53513;SDS011;39768;54.148;12.174;2023-01-29T19:37:35;6.75;;;4.85;;
53513;SDS011;39768;54.148;12.174;2023-01-29T19:41:37;13.43;;;5.47;;
53513;SDS011;39768;54.148;12.174;2023-01-29T19:45:38;9.88;;;4.65;;
53513;SDS011;39768;54.148;12.174;2023-01-29T19:49:50;16.02;;;6.13;;
53513;SDS011;39768;54.148;12.174;2023-01-29T19:53:52;7.18;;;4.47;;
53513;SDS011;39768;54.148;12.174;2023-01-29T19:57:53;5.75;;;4.82;;
53513;SDS011;39768;54.148;12.174;2023-01-29T20:01:57;7.85;;;4.57;;
53513;SDS011;39768;54.148;12.174;2023-01-29T20:06:01;5.53;;;3.67;;
53513;SDS011;39768;54.148;12.174;2023-01-29T20:10:05;13.95;;;6.65;;
53513;SDS011;39768;54.148;12.174;2023-01-29T20:14:17;13.45;;;4.20;;
53513;SDS011;39768;54.148;12.174;2023-01-29T20:18:18;12.77;;;3.15;;
53513;SDS011;39768;54.148;12.174;2023-01-29T20:22:20;7.88;;;4.22;;
53513;SDS011;39768;54.148;12.174;2023-01-29T20:26:21;5.45;;;3.80;;
53513;SDS011;39768;54.148;12.174;2023-01-29T20:30:23;5.80;;;4.28;;
53513;SDS011;39768;54.148;12.174;2023-01-29T20:34:25;6.03;;;2.83;;
53513;SDS011;39768;54.148;12.174;2023-01-29T20:38:26;6.18;;;3.83;;
53513;SDS011;39768;54.148;12.174;2023-01-29T20:42:32;7.45;;;4.57;;
53513;SDS011;39768;54.148;12.174;2023-01-29T20:46:33;7.38;;;4.00;;
53513;SDS011;39768;54.148;12.174;2023-01-29T20:50:35;5.07;;;2.88;;
53513;SDS011;39768;54.148;12.174;2023-01-29T20:54:37;8.60;;;2.97;;
53513;SDS011;39768;54.148;12.174;2023-01-29T20:58:38;7.07;;;3.17;;
53513;SDS011;39768;54.148;12.174;2023-01-29T21:02:43;5.57;;;3.38;;
53513;SDS011;39768;54.148;12.174;2023-01-29T21:06:46;2.50;;;2.40;;
53513;SDS011;39768;54.148;12.174;2023-01-29T21:10:48;5.75;;;4.05;;
53513;SDS011;39768;54.148;12.174;2023-01-29T21:14:51;6.40;;;3.22;;
53513;SDS011;39768;54.148;12.174;2023-01-29T21:18:53;3.55;;;2.03;;
53513;SDS011;39768;54.148;12.174;2023-01-29T21:22:56;2.50;;;2.22;;
53513;SDS011;39768;54.148;12.174;2023-01-29T21:26:57;4.47;;;3.65;;
53513;SDS011;39768;54.148;12.174;2023-01-29T21:31:05;6.10;;;3.97;;
53513;SDS011;39768;54.148;12.174;2023-01-29T21:35:10;4.70;;;3.33;;
53513;SDS011;39768;54.148;12.174;2023-01-29T21:39:11;15.50;;;6.30;;
53513;SDS011;39768;54.148;12.174;2023-01-29T21:43:21;12.85;;;5.57;;
53513;SDS011;39768;54.148;12.174;2023-01-29T21:47:22;6.82;;;3.13;;
53513;SDS011;39768;54.148;12.174;2023-01-29T21:51:24;3.95;;;3.55;;
53513;SDS011;39768;54.148;12.174;2023-01-29T21:55:25;9.07;;;3.88;;
53513;SDS011;39768;54.148;12.174;2023-01-29T21:59:27;4.32;;;3.33;;
53513;SDS011;39768;54.148;12.174;2023-01-29T22:03:28;5.95;;;2.80;;
53513;SDS011;39768;54.148;12.174;2023-01-29T22:07:30;8.25;;;4.03;;
53513;SDS011;39768;54.148;12.174;2023-01-29T22:11:31;4.25;;;3.42;;
53513;SDS011;39768;54.148;12.174;2023-01-29T22:15:33;15.43;;;5.68;;
53513;SDS011;39768;54.148;12.174;2023-01-29T22:19:34;8.38;;;3.95;;
53513;SDS011;39768;54.148;12.174;2023-01-29T22:23:36;2.03;;;1.92;;
53513;SDS011;39768;54.148;12.174;2023-01-29T22:27:38;12.30;;;5.07;;
53513;SDS011;39768;54.148;12.174;2023-01-29T22:31:39;7.40;;;3.53;;
53513;SDS011;39768;54.148;12.174;2023-01-29T22:35:41;15.02;;;5.25;;
53513;SDS011;39768;54.148;12.174;2023-01-29T22:39:42;18.30;;;8.90;;
53513;SDS011;39768;54.148;12.174;2023-01-29T22:43:44;12.88;;;5.50;;
53513;SDS011;39768;54.148;12.174;2023-01-29T22:47:45;14.48;;;5.05;;
53513;SDS011;39768;54.148;12.174;2023-01-29T22:51:47;7.70;;;4.18;;
53513;SDS011;39768;54.148;12.174;2023-01-29T22:56:09;6.00;;;3.38;;
53513;SDS011;39768;54.148;12.174;2023-01-29T23:00:11;16.13;;;5.25;;
53513;SDS011;39768;54.148;12.174;2023-01-29T23:04:13;16.00;;;6.88;;
53513;SDS011;39768;54.148;12.174;2023-01-29T23:08:14;4.18;;;3.40;;
53513;SDS011;39768;54.148;12.174;2023-01-29T23:12:16;5.05;;;3.40;;
53513;SDS011;39768;54.148;12.174;2023-01-29T23:16:19;8.43;;;4.00;;
53513;SDS011;39768;54.148;12.174;2023-01-29T23:20:22;7.20;;;4.45;;
53513;SDS011;39768;54.148;12.174;2023-01-29T23:24:24;3.85;;;3.28;;
53513;SDS011;39768;54.148;12.174;2023-01-29T23:28:25;8.05;;;6.00;;
53513;SDS011;39768;54.148;12.174;2023-01-29T23:32:26;6.57;;;3.70;;
53513;SDS011;39768;54.148;12.174;2023-01-29T23:36:28;16.73;;;7.07;;
53513;SDS011;39768;54.148;12.174;2023-01-29T23:40:29;5.82;;;3.70;;
53513;SDS011;39768;54.148;12.174;2023-01-29T23:44:31;8.40;;;4.57;;
53513;SDS011;39768;54.148;12.174;2023-01-29T23:48:32;18.13;;;5.90;;
53513;SDS011;39768;54.148;12.174;2023-01-29T23:52:34;10.55;;;4.63;;
53513;SDS011;39768;54.148;12.174;2023-01-29T23:56:36;5.05;;;3.92;;
